Portada
METAR-TAF:

METAR-TAF

Aeropuertos :

Aeropuerto Internacional de Magadán-Sokol

Magadán, Rusia

latitud: 59-33N, longitud: 150-47E, altitud: 118 m

Observación

El informe se hizo hace 52 minutos, a las 13:00 UTC
Viento 2 kt del este
Temperatura -40°C
Humedad 73%
Presión 1010 hPa
Visibilidad 10 km o más

METAR: UHMM 221300Z 09001MPS 9999 NSC M40/M43 Q1010 RMK QFE743

Hora: 00:52 (13:52 UTC)

Pronóstico

El informe se hizo hace 3 horas y 7 minutos, a las 10:45 UTC
Pronóstico válido del 22 a las 12 UTC al 23 a las 18 UTC
Viento 6 kt del este
Visibilidad 10 km o más

TAF: UHMM 221045Z 2212/2318 09003MPS 9999 NSC

Observaciones y pronósticos meteorológicos de más de 4000 aeropuertos (mensajes METAR y TAF).

Los puntos amarillos y rojos representan las estaciones disponibles.

Ponga el ratón en el punto deseado para ver el nombre de la estación.

Haga clic para ver las observaciones y los pronósticos meteorológicos.

Para cambiar el mapa : haga clic en los botones verdes con una cruz de color negro para hacer un zoom, en el botón verde con un guión para alejar o en las flechas verdes para mapas adyacentes.


METAR-TAF: